createdAt,value
2022-08-29T00:00:23.072Z,19.20
2022-08-29T00:02:52.481Z,19.27
2022-08-29T00:05:24.980Z,19.26
2022-08-29T00:07:52.078Z,19.15
2022-08-29T00:10:18.903Z,19.20
2022-08-29T00:12:45.439Z,19.22
2022-08-29T00:15:12.992Z,19.25
2022-08-29T00:17:39.527Z,19.13
2022-08-29T00:20:08.048Z,19.18
2022-08-29T00:22:34.682Z,19.22
2022-08-29T00:25:04.698Z,19.13
2022-08-29T00:27:33.074Z,19.13
2022-08-29T00:29:59.653Z,19.04
2022-08-29T00:32:26.209Z,18.95
2022-08-29T00:34:52.849Z,18.96
2022-08-29T00:37:19.904Z,18.89
2022-08-29T00:39:46.411Z,18.86
2022-08-29T00:42:13.309Z,18.87
2022-08-29T00:44:39.858Z,18.83
2022-08-29T00:47:09.751Z,18.83
2022-08-29T00:49:42.167Z,18.81
2022-08-29T00:52:14.573Z,18.76
2022-08-29T00:54:43.902Z,18.83
2022-08-29T00:57:10.831Z,18.74
2022-08-29T00:59:39.169Z,18.79
2022-08-29T01:02:07.357Z,18.83
2022-08-29T01:04:34.728Z,18.77
2022-08-29T01:07:01.316Z,18.82
2022-08-29T01:09:28.261Z,18.87
2022-08-29T01:12:14.953Z,18.98
2022-08-29T01:14:48.034Z,18.96
2022-08-29T01:17:21.583Z,19.09
2022-08-29T01:20:07.301Z,19.10
2022-08-29T01:23:01.070Z,19.09
2022-08-29T01:25:31.410Z,19.18
2022-08-29T01:28:13.801Z,19.13
2022-08-29T01:31:06.778Z,19.15
2022-08-29T01:33:56.874Z,19.21
2022-08-29T01:36:27.383Z,19.27
2022-08-29T01:38:54.541Z,19.17
2022-08-29T01:41:22.790Z,19.07
2022-08-29T01:43:52.292Z,19.07
2022-08-29T01:46:25.622Z,19.07
2022-08-29T01:48:52.507Z,19.08
2022-08-29T01:51:19.839Z,19.00
2022-08-29T01:53:46.534Z,18.97
2022-08-29T01:56:18.571Z,19.02
2022-08-29T01:58:46.298Z,18.97
2022-08-29T02:01:15.229Z,18.92
2022-08-29T02:03:42.061Z,18.86
2022-08-29T02:06:11.741Z,18.82
2022-08-29T02:08:39.634Z,18.78
2022-08-29T02:11:11.456Z,18.75
2022-08-29T02:13:59.609Z,18.76
2022-08-29T02:16:27.747Z,18.75
2022-08-29T02:18:54.869Z,18.72
2022-08-29T02:21:23.428Z,18.80
2022-08-29T02:23:50.693Z,18.82
2022-08-29T02:26:18.688Z,18.73
2022-08-29T02:28:46.242Z,18.80
2022-08-29T02:31:13.322Z,18.94
2022-08-29T02:33:40.369Z,18.91
2022-08-29T02:36:07.769Z,18.86
2022-08-29T02:38:34.994Z,18.90
2022-08-29T02:41:01.796Z,18.86
2022-08-29T02:43:28.403Z,18.71
2022-08-29T02:45:55.042Z,18.70
2022-08-29T02:48:21.576Z,18.70
2022-08-29T02:50:50.431Z,18.76
2022-08-29T02:53:18.940Z,18.72
2022-08-29T02:55:47.355Z,18.70
2022-08-29T02:58:14.525Z,18.69
2022-08-29T03:00:42.374Z,18.67
2022-08-29T03:03:08.997Z,18.66
2022-08-29T03:05:37.211Z,18.66
2022-08-29T03:08:07.131Z,18.64
2022-08-29T03:10:34.413Z,18.70
2022-08-29T03:13:01.340Z,18.75
2022-08-29T03:15:27.884Z,18.75
2022-08-29T03:17:54.746Z,18.75
2022-08-29T03:20:24.028Z,18.79
2022-08-29T03:22:51.903Z,18.76
2022-08-29T03:25:18.433Z,18.73
2022-08-29T03:27:45.071Z,18.71
2022-08-29T03:30:13.685Z,18.80
2022-08-29T03:32:40.598Z,18.80
2022-08-29T03:35:09.437Z,18.83
2022-08-29T03:37:35.931Z,18.81
2022-08-29T03:40:05.290Z,18.80
2022-08-29T03:42:31.963Z,18.89
2022-08-29T03:44:58.594Z,18.86
2022-08-29T03:47:25.133Z,18.85
2022-08-29T03:49:51.630Z,18.92
2022-08-29T03:52:18.107Z,18.90
2022-08-29T03:54:44.548Z,18.88
2022-08-29T03:57:12.108Z,18.92
2022-08-29T03:59:38.605Z,18.95
2022-08-29T04:02:05.378Z,18.82
2022-08-29T04:04:50.299Z,18.90
2022-08-29T04:07:17.667Z,18.89
2022-08-29T04:09:44.332Z,18.83
2022-08-29T04:12:12.349Z,18.83
2022-08-29T04:14:39.593Z,18.86
2022-08-29T04:17:06.827Z,18.89
2022-08-29T04:19:35.213Z,18.78
2022-08-29T04:22:02.495Z,18.79
2022-08-29T04:24:33.598Z,18.79
2022-08-29T04:27:00.461Z,18.80
2022-08-29T04:29:27.626Z,18.84
2022-08-29T04:31:54.196Z,18.82
2022-08-29T04:34:21.368Z,18.74
2022-08-29T04:36:48.254Z,18.73
2022-08-29T04:39:15.213Z,18.73
2022-08-29T04:41:42.221Z,18.74
2022-08-29T04:44:11.175Z,18.71
2022-08-29T04:46:38.361Z,18.69
2022-08-29T04:49:05.317Z,18.66
2022-08-29T04:51:34.224Z,18.64
2022-08-29T04:54:00.916Z,18.60
2022-08-29T04:56:27.637Z,18.54
2022-08-29T04:58:57.088Z,18.55
2022-08-29T05:01:26.101Z,18.59
2022-08-29T05:03:54.505Z,18.51
2022-08-29T05:06:22.893Z,18.52
2022-08-29T05:08:58.794Z,18.51
2022-08-29T05:11:28.814Z,18.48
2022-08-29T05:13:55.578Z,18.39
2022-08-29T05:16:22.214Z,18.40
2022-08-29T05:18:49.260Z,18.41
2022-08-29T05:21:35.589Z,18.37
2022-08-29T05:24:07.550Z,18.35
2022-08-29T05:26:37.785Z,18.38
2022-08-29T05:29:08.718Z,18.35
2022-08-29T05:31:37.474Z,18.36
2022-08-29T05:34:21.887Z,18.42
2022-08-29T05:36:51.977Z,18.44
2022-08-29T05:39:18.507Z,18.41
2022-08-29T05:41:44.996Z,18.35
2022-08-29T05:44:11.561Z,18.38
2022-08-29T05:46:38.187Z,18.38
2022-08-29T05:49:05.855Z,18.43
2022-08-29T05:51:37.296Z,18.41
2022-08-29T05:54:06.016Z,18.41
2022-08-29T05:56:32.818Z,18.42
2022-08-29T05:58:59.519Z,18.47
2022-08-29T06:01:29.386Z,18.58
2022-08-29T06:04:00.151Z,18.61
2022-08-29T06:06:28.787Z,18.67
2022-08-29T06:08:56.958Z,18.66
2022-08-29T06:11:29.655Z,18.64
2022-08-29T06:13:57.259Z,18.62
2022-08-29T06:16:25.234Z,18.52
2022-08-29T06:18:52.237Z,18.61
2022-08-29T06:21:19.739Z,18.81
2022-08-29T06:23:46.785Z,19.03
2022-08-29T06:26:14.170Z,18.88
2022-08-29T06:28:45.842Z,18.82
2022-08-29T06:31:29.436Z,18.94
2022-08-29T06:34:01.065Z,18.94
2022-08-29T06:36:28.808Z,18.99
2022-08-29T06:38:57.772Z,18.99
2022-08-29T06:41:25.470Z,18.87
2022-08-29T06:43:52.203Z,18.87
2022-08-29T06:46:22.636Z,18.91
2022-08-29T06:48:50.117Z,19.02
2022-08-29T06:51:16.990Z,19.15
2022-08-29T06:53:43.665Z,19.15
2022-08-29T06:56:11.152Z,19.15
2022-08-29T06:58:38.249Z,19.14
2022-08-29T07:01:09.678Z,19.22
2022-08-29T07:03:36.204Z,19.23
2022-08-29T07:06:03.320Z,19.26
2022-08-29T07:08:30.236Z,19.27
2022-08-29T07:10:57.657Z,19.35
2022-08-29T07:13:24.641Z,19.33
2022-08-29T07:15:52.376Z,19.36
2022-08-29T07:18:19.028Z,19.60
2022-08-29T07:20:45.696Z,19.75
2022-08-29T07:23:12.474Z,19.74
2022-08-29T07:25:39.168Z,19.79
2022-08-29T07:28:06.560Z,19.77
2022-08-29T07:30:34.864Z,19.79
2022-08-29T07:33:01.653Z,19.75
2022-08-29T07:35:31.229Z,19.70
2022-08-29T07:38:01.455Z,19.52
2022-08-29T07:40:28.670Z,19.21
2022-08-29T07:42:55.699Z,19.16
2022-08-29T07:45:22.317Z,19.12
2022-08-29T07:47:48.916Z,19.15
2022-08-29T07:50:15.632Z,18.93
2022-08-29T07:52:42.357Z,18.88
2022-08-29T07:55:10.244Z,18.78
2022-08-29T07:57:39.759Z,19.02
2022-08-29T08:00:10.734Z,19.39
2022-08-29T08:02:37.532Z,19.57
2022-08-29T08:05:06.828Z,19.56
2022-08-29T08:07:35.228Z,19.62
2022-08-29T08:10:03.158Z,19.49
2022-08-29T08:12:29.949Z,19.50
2022-08-29T08:14:57.751Z,19.49
2022-08-29T08:17:24.732Z,19.40
2022-08-29T08:19:51.252Z,19.38
2022-08-29T08:22:17.781Z,19.31
2022-08-29T08:24:45.157Z,19.25
2022-08-29T08:27:11.908Z,19.25
2022-08-29T08:29:38.620Z,19.37
2022-08-29T08:32:05.705Z,19.42
2022-08-29T08:34:35.871Z,19.56
2022-08-29T08:37:08.265Z,19.53
2022-08-29T08:39:35.675Z,19.53
2022-08-29T08:42:07.117Z,19.50
2022-08-29T08:44:54.001Z,19.45
2022-08-29T08:47:26.353Z,19.24
2022-08-29T08:50:21.642Z,19.43
2022-08-29T08:53:05.494Z,19.27
2022-08-29T08:55:40.052Z,19.26
2022-08-29T08:58:16.189Z,19.51
2022-08-29T09:00:50.729Z,19.58
2022-08-29T09:03:40.126Z,19.78
2022-08-29T09:06:16.025Z,19.86
2022-08-29T09:08:51.324Z,19.88
2022-08-29T09:11:33.702Z,20.45
2022-08-29T09:14:06.355Z,20.81
2022-08-29T09:16:41.077Z,20.89
2022-08-29T09:19:11.339Z,21.27
2022-08-29T09:21:47.055Z,21.40
2022-08-29T09:24:21.687Z,21.23
2022-08-29T09:26:48.515Z,21.28
2022-08-29T09:29:17.302Z,21.35
2022-08-29T09:31:44.064Z,21.40
2022-08-29T09:34:13.039Z,21.43
2022-08-29T09:36:52.413Z,21.45
2022-08-29T09:39:25.949Z,21.46
2022-08-29T09:42:12.815Z,21.45
2022-08-29T09:44:41.063Z,21.79
2022-08-29T09:47:12.972Z,21.82
2022-08-29T09:49:42.422Z,21.85
2022-08-29T09:52:24.808Z,21.85
2022-08-29T09:54:51.419Z,21.77
2022-08-29T09:57:29.234Z,21.96
2022-08-29T10:00:13.677Z,21.81
2022-08-29T10:02:43.782Z,21.74
2022-08-29T10:05:30.632Z,21.85
2022-08-29T10:07:59.062Z,22.32
2022-08-29T10:10:28.700Z,22.44
2022-08-29T10:13:01.053Z,22.36
2022-08-29T10:15:49.900Z,22.13
2022-08-29T10:18:24.667Z,22.32
2022-08-29T10:21:25.114Z,21.83
2022-08-29T10:23:59.991Z,21.69
2022-08-29T10:26:39.845Z,21.75
2022-08-29T10:29:29.622Z,21.73
2022-08-29T10:32:36.925Z,21.76
2022-08-29T10:35:39.340Z,22.31
2022-08-29T10:38:23.657Z,22.12
2022-08-29T10:41:20.624Z,21.85
2022-08-29T10:44:05.711Z,22.37
2022-08-29T10:46:47.972Z,22.56
2022-08-29T10:49:32.576Z,22.47
2022-08-29T10:52:15.308Z,22.12
2022-08-29T10:55:00.319Z,21.96
2022-08-29T10:57:55.428Z,21.71
2022-08-29T11:00:25.053Z,21.77
2022-08-29T11:03:11.799Z,22.04
2022-08-29T11:05:47.021Z,22.23
2022-08-29T11:08:21.094Z,22.49
2022-08-29T11:10:50.631Z,22.47
2022-08-29T11:13:36.896Z,22.16
2022-08-29T11:16:17.025Z,21.80
2022-08-29T11:18:51.709Z,21.48
2022-08-29T11:21:27.771Z,21.59
2022-08-29T11:23:58.997Z,21.79
2022-08-29T11:26:44.776Z,21.97
2022-08-29T11:29:33.132Z,22.20
2022-08-29T11:32:12.982Z,22.45
2022-08-29T11:35:07.638Z,22.76
2022-08-29T11:37:59.504Z,22.83
2022-08-29T11:41:26.469Z,22.95
2022-08-29T11:43:30.889Z,22.86
2022-08-29T11:46:05.083Z,22.80
2022-08-29T11:48:38.037Z,22.79
2022-08-29T11:51:40.145Z,22.73
2022-08-29T11:54:25.324Z,22.72
2022-08-29T11:57:01.077Z,22.74
2022-08-29T11:59:49.748Z,22.91
2022-08-29T12:02:22.898Z,23.14
2022-08-29T12:05:00.853Z,23.21
2022-08-29T12:07:42.458Z,23.09
2022-08-29T12:10:24.644Z,23.12
2022-08-29T12:12:53.351Z,23.17
2022-08-29T12:15:32.607Z,23.07
2022-08-29T12:18:03.715Z,23.14
2022-08-29T12:20:30.507Z,22.86
2022-08-29T12:23:07.683Z,22.51
2022-08-29T12:25:44.888Z,22.72
2022-08-29T12:28:17.564Z,23.06
2022-08-29T12:30:49.337Z,22.91
2022-08-29T12:33:46.882Z,22.76
2022-08-29T12:36:41.177Z,22.91
2022-08-29T12:39:57.729Z,22.96
2022-08-29T12:42:46.669Z,22.82
2022-08-29T12:45:18.336Z,22.77
2022-08-29T12:47:48.013Z,22.73
2022-08-29T12:50:18.679Z,22.61
2022-08-29T12:53:00.044Z,22.62
2022-08-29T12:55:39.864Z,22.83
2022-08-29T12:58:07.902Z,22.80
2022-08-29T13:00:35.094Z,22.70
2022-08-29T13:03:09.569Z,22.92
2022-08-29T13:05:42.237Z,23.31
2022-08-29T13:08:28.616Z,23.51
2022-08-29T13:11:00.680Z,23.16
2022-08-29T13:13:29.135Z,23.23
2022-08-29T13:16:01.767Z,23.21
2022-08-29T13:18:29.724Z,23.24
2022-08-29T13:21:21.539Z,23.10
2022-08-29T13:24:00.444Z,23.11
2022-08-29T13:26:29.227Z,23.37
2022-08-29T13:29:13.286Z,23.68
2022-08-29T13:31:40.138Z,23.75
2022-08-29T13:34:06.633Z,23.79
2022-08-29T13:36:49.290Z,23.77
2022-08-29T13:39:25.322Z,23.56
2022-08-29T13:41:58.599Z,23.44
2022-08-29T13:44:30.983Z,23.37
2022-08-29T13:47:01.397Z,23.27
2022-08-29T13:49:33.546Z,23.35
2022-08-29T13:52:00.931Z,23.53
2022-08-29T13:54:33.141Z,23.44
2022-08-29T13:57:03.257Z,23.46
2022-08-29T13:59:35.944Z,23.34
2022-08-29T14:02:11.210Z,23.40
2022-08-29T14:04:40.881Z,23.52
2022-08-29T14:07:18.061Z,23.88
2022-08-29T14:09:45.759Z,23.88
2022-08-29T14:12:14.234Z,23.69
2022-08-29T14:14:42.368Z,23.65
2022-08-29T14:17:09.583Z,23.80
2022-08-29T14:19:36.792Z,23.57
2022-08-29T14:22:03.909Z,23.49
2022-08-29T14:24:31.796Z,23.84
2022-08-29T14:27:01.585Z,23.96
2022-08-29T14:29:32.965Z,23.55
2022-08-29T14:32:03.123Z,23.62
2022-08-29T14:34:30.830Z,23.56
2022-08-29T14:37:00.676Z,23.51
2022-08-29T14:39:27.723Z,23.26
2022-08-29T14:41:54.837Z,23.32
2022-08-29T14:44:24.549Z,23.41
2022-08-29T14:46:51.068Z,23.18
2022-08-29T14:49:18.545Z,23.02
2022-08-29T14:51:45.614Z,23.21
2022-08-29T14:54:13.201Z,23.41
2022-08-29T14:56:49.584Z,23.59
2022-08-29T14:59:19.017Z,23.53
2022-08-29T15:01:49.932Z,23.46
2022-08-29T15:04:27.466Z,23.42
2022-08-29T15:07:06.154Z,23.29
2022-08-29T15:09:33.648Z,23.26
2022-08-29T15:12:00.184Z,23.18
2022-08-29T15:14:26.836Z,23.14
2022-08-29T15:16:53.677Z,23.23
2022-08-29T15:22:08.546Z,23.46
2022-08-29T15:24:35.107Z,23.35
2022-08-29T15:27:02.231Z,23.26
2022-08-29T15:29:29.222Z,23.09
2022-08-29T15:31:58.779Z,23.00
2022-08-29T15:34:26.477Z,22.86
2022-08-29T15:36:54.442Z,22.79
2022-08-29T15:39:21.743Z,22.64
2022-08-29T15:41:48.285Z,22.75
2022-08-29T15:44:15.296Z,22.69
2022-08-29T15:46:50.864Z,22.59
2022-08-29T15:49:18.574Z,22.49
2022-08-29T15:51:45.219Z,22.49
2022-08-29T15:54:12.790Z,22.49
2022-08-29T15:56:39.388Z,22.58
2022-08-29T15:59:07.972Z,22.56
2022-08-29T16:01:38.821Z,22.47
2022-08-29T16:04:09.350Z,22.32
2022-08-29T16:06:36.458Z,22.31
2022-08-29T16:09:03.993Z,22.45
2022-08-29T16:11:41.877Z,22.33
2022-08-29T16:16:58.370Z,21.99
2022-08-29T16:19:24.929Z,22.12
2022-08-29T16:21:51.549Z,22.12
2022-08-29T16:24:18.530Z,22.07
2022-08-29T16:26:45.904Z,22.01
2022-08-29T16:29:13.017Z,21.92
2022-08-29T16:31:40.033Z,21.87
2022-08-29T16:34:06.587Z,21.60
2022-08-29T16:36:33.173Z,21.56
2022-08-29T16:38:59.801Z,21.55
2022-08-29T16:41:27.912Z,21.53
2022-08-29T16:43:55.151Z,21.48
2022-08-29T16:46:25.700Z,21.34
2022-08-29T16:48:52.804Z,21.20
2022-08-29T16:51:22.219Z,21.22
2022-08-29T16:53:48.888Z,21.17
2022-08-29T16:56:16.589Z,21.04
2022-08-29T16:59:01.782Z,21.03
2022-08-29T17:01:49.311Z,20.99
2022-08-29T17:04:18.851Z,20.88
2022-08-29T17:06:48.872Z,20.79
2022-08-29T17:09:20.092Z,20.74
2022-08-29T17:11:47.527Z,20.74
2022-08-29T17:14:14.941Z,20.74
2022-08-29T17:16:43.415Z,20.57
2022-08-29T17:19:09.956Z,20.46
2022-08-29T17:21:36.568Z,20.35
2022-08-29T17:24:06.798Z,20.30
2022-08-29T17:26:35.035Z,20.16
2022-08-29T17:29:01.918Z,20.14
2022-08-29T17:31:30.019Z,20.06
2022-08-29T17:34:05.329Z,19.94
2022-08-29T17:36:33.391Z,19.87
2022-08-29T17:38:59.960Z,19.85
2022-08-29T17:41:27.558Z,19.76
2022-08-29T17:43:57.427Z,19.67
2022-08-29T17:46:24.305Z,19.66
2022-08-29T17:48:50.892Z,19.56
2022-08-29T17:51:17.639Z,19.49
2022-08-29T17:53:46.398Z,19.37
2022-08-29T17:56:21.243Z,19.26
2022-08-29T17:58:48.245Z,19.18
2022-08-29T18:01:16.921Z,19.16
2022-08-29T18:03:44.760Z,19.02
2022-08-29T18:06:14.483Z,18.97
2022-08-29T18:08:42.169Z,18.90
2022-08-29T18:11:15.680Z,18.76
2022-08-29T18:13:42.332Z,18.74
2022-08-29T18:16:10.539Z,18.78
2022-08-29T18:18:37.608Z,18.73
2022-08-29T18:21:04.485Z,18.79
2022-08-29T18:23:31.218Z,18.63
2022-08-29T18:25:59.387Z,18.56
2022-08-29T18:28:26.053Z,18.48
2022-08-29T18:30:53.123Z,18.54
2022-08-29T18:33:20.119Z,18.52
2022-08-29T18:35:47.632Z,18.51
2022-08-29T18:38:15.909Z,18.49
2022-08-29T18:40:42.584Z,18.40
2022-08-29T18:43:09.862Z,18.41
2022-08-29T18:45:37.596Z,18.28
2022-08-29T18:48:04.814Z,18.22
2022-08-29T18:50:34.263Z,18.10
2022-08-29T18:53:21.925Z,18.08
2022-08-29T18:55:50.485Z,18.02
2022-08-29T18:58:21.223Z,18.02
2022-08-29T19:00:48.448Z,17.95
2022-08-29T19:03:15.083Z,17.93
2022-08-29T19:05:46.181Z,17.80
2022-08-29T19:08:13.583Z,17.82
2022-08-29T19:10:40.191Z,17.81
2022-08-29T19:13:09.672Z,17.70
2022-08-29T19:15:41.290Z,17.69
2022-08-29T19:18:09.885Z,17.61
2022-08-29T19:20:55.179Z,17.47
2022-08-29T19:23:22.555Z,17.49
2022-08-29T19:25:49.266Z,17.42
2022-08-29T19:28:17.079Z,17.37
2022-08-29T19:30:43.997Z,17.36
2022-08-29T19:33:11.068Z,17.29
2022-08-29T19:35:38.846Z,17.30
2022-08-29T19:38:06.573Z,17.22
2022-08-29T19:40:38.947Z,17.21
2022-08-29T19:43:13.778Z,17.26
2022-08-29T19:45:42.556Z,17.15
2022-08-29T19:48:14.825Z,16.99
2022-08-29T19:50:43.417Z,16.96
2022-08-29T19:53:16.990Z,16.96
2022-08-29T19:55:53.546Z,16.91
2022-08-29T19:58:21.100Z,16.83
2022-08-29T20:00:48.033Z,16.77
2022-08-29T20:03:15.332Z,16.70
2022-08-29T20:05:42.026Z,16.73
2022-08-29T20:08:09.265Z,16.65
2022-08-29T20:10:36.711Z,16.61
2022-08-29T20:13:04.094Z,16.61
2022-08-29T20:15:31.025Z,16.62
2022-08-29T20:18:00.333Z,16.64
2022-08-29T20:20:36.580Z,16.70
2022-08-29T20:23:04.976Z,16.62
2022-08-29T20:25:32.731Z,16.55
2022-08-29T20:27:59.624Z,16.49
2022-08-29T20:30:28.347Z,16.51
2022-08-29T20:32:54.929Z,16.39
2022-08-29T20:35:40.768Z,16.42
2022-08-29T20:38:08.109Z,16.42
2022-08-29T20:40:46.938Z,16.32
2022-08-29T20:43:14.812Z,16.28
2022-08-29T20:45:42.408Z,16.30
2022-08-29T20:48:10.238Z,16.26
2022-08-29T20:50:36.975Z,16.24
2022-08-29T20:53:05.003Z,16.21
2022-08-29T20:55:31.677Z,16.17
2022-08-29T20:57:58.659Z,16.19
2022-08-29T21:00:25.179Z,16.09
2022-08-29T21:03:10.543Z,16.09
2022-08-29T21:05:47.040Z,16.09
2022-08-29T21:08:19.007Z,16.06
2022-08-29T21:10:46.385Z,16.07
2022-08-29T21:13:13.957Z,16.09
2022-08-29T21:15:41.611Z,16.04
2022-08-29T21:18:09.126Z,15.97
2022-08-29T21:20:37.264Z,16.00
2022-08-29T21:23:12.892Z,15.98
2022-08-29T21:25:44.570Z,15.94
2022-08-29T21:28:12.012Z,15.93
2022-08-29T21:30:45.490Z,15.96
2022-08-29T21:33:12.426Z,15.97
2022-08-29T21:35:40.506Z,15.86
2022-08-29T21:38:08.192Z,15.82
2022-08-29T21:40:35.326Z,15.60
2022-08-29T21:43:10.635Z,15.52
2022-08-29T21:45:39.840Z,15.49
2022-08-29T21:48:06.749Z,15.45
2022-08-29T21:50:33.532Z,15.38
2022-08-29T21:53:00.067Z,15.42
2022-08-29T21:55:26.721Z,15.42
2022-08-29T21:57:53.678Z,15.46
2022-08-29T22:00:22.633Z,15.48
2022-08-29T22:02:49.150Z,15.48
2022-08-29T22:05:15.805Z,15.50
2022-08-29T22:07:42.963Z,15.45
2022-08-29T22:10:17.689Z,15.50
2022-08-29T22:12:44.489Z,15.33
2022-08-29T22:15:32.032Z,15.25
2022-08-29T22:17:59.225Z,15.26
2022-08-29T22:20:25.824Z,15.11
2022-08-29T22:22:52.800Z,15.15
2022-08-29T22:25:19.789Z,15.14
2022-08-29T22:27:46.559Z,15.14
2022-08-29T22:30:13.656Z,15.13
2022-08-29T22:32:40.966Z,15.16
2022-08-29T22:35:09.359Z,15.12
2022-08-29T22:37:37.013Z,15.17
2022-08-29T22:40:13.473Z,15.15
2022-08-29T22:42:41.148Z,15.08
2022-08-29T22:45:08.913Z,15.05
2022-08-29T22:47:37.168Z,14.99
2022-08-29T22:50:06.601Z,14.99
2022-08-29T22:52:33.564Z,14.97
2022-08-29T22:55:00.296Z,15.07
2022-08-29T22:57:27.046Z,14.91
2022-08-29T22:59:53.510Z,14.91
2022-08-29T23:02:21.593Z,14.92
2022-08-29T23:04:49.603Z,14.84
2022-08-29T23:07:16.436Z,14.80
2022-08-29T23:09:43.872Z,14.83
2022-08-29T23:12:12.363Z,14.76
2022-08-29T23:14:40.645Z,14.69
2022-08-29T23:17:08.444Z,14.62
2022-08-29T23:19:35.638Z,14.59
2022-08-29T23:22:02.494Z,14.62
2022-08-29T23:24:29.942Z,14.60
2022-08-29T23:26:57.213Z,14.62
2022-08-29T23:29:24.036Z,14.68
2022-08-29T23:31:50.666Z,14.66
2022-08-29T23:34:17.767Z,14.69
2022-08-29T23:36:44.478Z,14.65
2022-08-29T23:39:11.166Z,14.63
2022-08-29T23:41:37.805Z,14.71
2022-08-29T23:44:04.525Z,14.57
2022-08-29T23:46:31.129Z,14.52
2022-08-29T23:48:59.349Z,14.45
2022-08-29T23:51:25.900Z,14.46
2022-08-29T23:53:52.731Z,14.40
2022-08-29T23:56:21.221Z,14.46
2022-08-29T23:58:48.126Z,14.39
